sensor_id;sensor_type;location;lat;lon;timestamp;P1;durP1;ratioP1;P2;durP2;ratioP2
64903;SDS011;51401;48.882;12.598;2023-05-01T00:01:21;7.22;;;4.97;;
64903;SDS011;51401;48.882;12.598;2023-05-01T00:03:46;4.72;;;4.22;;
64903;SDS011;51401;48.882;12.598;2023-05-01T00:06:11;6.50;;;4.40;;
64903;SDS011;51401;48.882;12.598;2023-05-01T00:08:37;5.93;;;4.22;;
64903;SDS011;51401;48.882;12.598;2023-05-01T00:11:02;4.45;;;4.05;;
64903;SDS011;51401;48.882;12.598;2023-05-01T00:13:29;6.63;;;4.55;;
64903;SDS011;51401;48.882;12.598;2023-05-01T00:15:54;5.28;;;3.85;;
64903;SDS011;51401;48.882;12.598;2023-05-01T00:18:20;6.20;;;5.00;;
64903;SDS011;51401;48.882;12.598;2023-05-01T00:20:45;5.32;;;4.28;;
64903;SDS011;51401;48.882;12.598;2023-05-01T00:23:10;5.40;;;4.78;;
64903;SDS011;51401;48.882;12.598;2023-05-01T00:25:36;5.30;;;4.70;;
64903;SDS011;51401;48.882;12.598;2023-05-01T00:28:02;5.68;;;4.57;;
64903;SDS011;51401;48.882;12.598;2023-05-01T00:30:28;7.05;;;5.20;;
64903;SDS011;51401;48.882;12.598;2023-05-01T00:32:53;6.53;;;5.80;;
64903;SDS011;51401;48.882;12.598;2023-05-01T00:35:19;9.35;;;6.32;;
64903;SDS011;51401;48.882;12.598;2023-05-01T00:37:44;6.10;;;5.22;;
64903;SDS011;51401;48.882;12.598;2023-05-01T00:40:09;6.85;;;5.95;;
64903;SDS011;51401;48.882;12.598;2023-05-01T00:42:35;8.23;;;5.93;;
64903;SDS011;51401;48.882;12.598;2023-05-01T00:45:01;7.70;;;5.28;;
64903;SDS011;51401;48.882;12.598;2023-05-01T00:47:27;7.18;;;5.60;;
64903;SDS011;51401;48.882;12.598;2023-05-01T00:49:53;6.80;;;5.65;;
64903;SDS011;51401;48.882;12.598;2023-05-01T00:52:19;7.72;;;5.47;;
64903;SDS011;51401;48.882;12.598;2023-05-01T00:54:44;5.32;;;4.55;;
64903;SDS011;51401;48.882;12.598;2023-05-01T00:57:16;6.82;;;6.13;;
64903;SDS011;51401;48.882;12.598;2023-05-01T00:59:45;7.70;;;5.55;;
64903;SDS011;51401;48.882;12.598;2023-05-01T01:02:11;6.65;;;5.13;;
64903;SDS011;51401;48.882;12.598;2023-05-01T01:04:37;5.85;;;5.00;;
64903;SDS011;51401;48.882;12.598;2023-05-01T01:12:25;8.63;;;5.35;;
64903;SDS011;51401;48.882;12.598;2023-05-01T01:17:50;7.18;;;5.35;;
64903;SDS011;51401;48.882;12.598;2023-05-01T01:22:46;6.38;;;5.10;;
64903;SDS011;51401;48.882;12.598;2023-05-01T01:25:25;7.00;;;5.18;;
64903;SDS011;51401;48.882;12.598;2023-05-01T01:30:54;7.18;;;5.07;;
64903;SDS011;51401;48.882;12.598;2023-05-01T01:36:15;7.15;;;5.82;;
64903;SDS011;51401;48.882;12.598;2023-05-01T01:38:45;7.70;;;5.80;;
64903;SDS011;51401;48.882;12.598;2023-05-01T01:41:25;8.13;;;5.60;;
64903;SDS011;51401;48.882;12.598;2023-05-01T01:44:08;8.60;;;5.82;;
64903;SDS011;51401;48.882;12.598;2023-05-01T01:46:39;6.72;;;5.40;;
64903;SDS011;51401;48.882;12.598;2023-05-01T01:49:08;6.85;;;5.35;;
64903;SDS011;51401;48.882;12.598;2023-05-01T01:51:39;8.73;;;6.05;;
64903;SDS011;51401;48.882;12.598;2023-05-01T01:54:06;7.00;;;5.57;;
64903;SDS011;51401;48.882;12.598;2023-05-01T01:56:32;7.78;;;5.32;;
64903;SDS011;51401;48.882;12.598;2023-05-01T01:59:00;7.53;;;5.28;;
64903;SDS011;51401;48.882;12.598;2023-05-01T02:01:26;8.10;;;5.30;;
64903;SDS011;51401;48.882;12.598;2023-05-01T02:03:53;6.45;;;5.13;;
64903;SDS011;51401;48.882;12.598;2023-05-01T02:06:19;6.13;;;5.22;;
64903;SDS011;51401;48.882;12.598;2023-05-01T02:08:46;10.23;;;6.30;;
64903;SDS011;51401;48.882;12.598;2023-05-01T02:11:12;6.38;;;5.15;;
64903;SDS011;51401;48.882;12.598;2023-05-01T02:13:40;8.10;;;5.72;;
64903;SDS011;51401;48.882;12.598;2023-05-01T02:16:07;7.22;;;5.35;;
64903;SDS011;51401;48.882;12.598;2023-05-01T02:18:33;6.82;;;5.55;;
64903;SDS011;51401;48.882;12.598;2023-05-01T02:21:00;6.28;;;5.20;;
64903;SDS011;51401;48.882;12.598;2023-05-01T02:23:27;6.93;;;5.20;;
64903;SDS011;51401;48.882;12.598;2023-05-01T02:25:55;7.78;;;5.85;;
64903;SDS011;51401;48.882;12.598;2023-05-01T02:28:22;7.00;;;5.90;;
64903;SDS011;51401;48.882;12.598;2023-05-01T02:30:50;7.60;;;5.60;;
64903;SDS011;51401;48.882;12.598;2023-05-01T02:33:16;7.85;;;5.63;;
64903;SDS011;51401;48.882;12.598;2023-05-01T02:35:42;7.50;;;5.60;;
64903;SDS011;51401;48.882;12.598;2023-05-01T02:38:11;8.70;;;6.10;;
64903;SDS011;51401;48.882;12.598;2023-05-01T02:40:38;8.88;;;6.38;;
64903;SDS011;51401;48.882;12.598;2023-05-01T02:43:05;8.52;;;6.10;;
64903;SDS011;51401;48.882;12.598;2023-05-01T02:45:34;7.85;;;5.82;;
64903;SDS011;51401;48.882;12.598;2023-05-01T02:48:01;10.93;;;6.00;;
64903;SDS011;51401;48.882;12.598;2023-05-01T02:50:29;8.32;;;6.07;;
64903;SDS011;51401;48.882;12.598;2023-05-01T02:52:55;7.30;;;5.85;;
64903;SDS011;51401;48.882;12.598;2023-05-01T02:55:21;8.43;;;5.93;;
64903;SDS011;51401;48.882;12.598;2023-05-01T02:57:49;7.93;;;5.78;;
64903;SDS011;51401;48.882;12.598;2023-05-01T03:00:15;7.68;;;5.93;;
64903;SDS011;51401;48.882;12.598;2023-05-01T03:02:40;7.50;;;6.32;;
64903;SDS011;51401;48.882;12.598;2023-05-01T03:05:06;8.45;;;6.60;;
64903;SDS011;51401;48.882;12.598;2023-05-01T03:07:32;8.05;;;6.43;;
64903;SDS011;51401;48.882;12.598;2023-05-01T03:10:02;6.95;;;5.78;;
64903;SDS011;51401;48.882;12.598;2023-05-01T03:12:31;9.23;;;6.68;;
64903;SDS011;51401;48.882;12.598;2023-05-01T03:14:57;8.48;;;5.78;;
64903;SDS011;51401;48.882;12.598;2023-05-01T03:17:22;9.25;;;6.43;;
64903;SDS011;51401;48.882;12.598;2023-05-01T03:19:47;7.72;;;6.03;;
64903;SDS011;51401;48.882;12.598;2023-05-01T03:22:14;9.50;;;6.82;;
64903;SDS011;51401;48.882;12.598;2023-05-01T03:24:39;8.00;;;6.80;;
64903;SDS011;51401;48.882;12.598;2023-05-01T03:27:05;9.57;;;6.43;;
64903;SDS011;51401;48.882;12.598;2023-05-01T03:29:31;7.97;;;6.28;;
64903;SDS011;51401;48.882;12.598;2023-05-01T03:31:58;9.73;;;7.22;;
64903;SDS011;51401;48.882;12.598;2023-05-01T03:34:23;10.35;;;7.28;;
64903;SDS011;51401;48.882;12.598;2023-05-01T03:36:49;9.50;;;7.18;;
64903;SDS011;51401;48.882;12.598;2023-05-01T03:39:14;9.15;;;7.18;;
64903;SDS011;51401;48.882;12.598;2023-05-01T03:41:39;10.57;;;7.45;;
64903;SDS011;51401;48.882;12.598;2023-05-01T03:44:04;9.18;;;7.20;;
64903;SDS011;51401;48.882;12.598;2023-05-01T03:46:30;8.77;;;6.53;;
64903;SDS011;51401;48.882;12.598;2023-05-01T03:48:55;9.57;;;7.00;;
64903;SDS011;51401;48.882;12.598;2023-05-01T03:51:20;9.60;;;7.32;;
64903;SDS011;51401;48.882;12.598;2023-05-01T03:53:46;10.73;;;7.03;;
64903;SDS011;51401;48.882;12.598;2023-05-01T03:56:11;10.48;;;7.90;;
64903;SDS011;51401;48.882;12.598;2023-05-01T03:58:36;8.75;;;6.90;;
64903;SDS011;51401;48.882;12.598;2023-05-01T04:01:02;8.60;;;7.13;;
64903;SDS011;51401;48.882;12.598;2023-05-01T04:03:27;9.38;;;7.70;;
64903;SDS011;51401;48.882;12.598;2023-05-01T04:05:53;9.73;;;6.95;;
64903;SDS011;51401;48.882;12.598;2023-05-01T04:08:18;10.35;;;7.72;;
64903;SDS011;51401;48.882;12.598;2023-05-01T04:10:43;11.32;;;7.93;;
64903;SDS011;51401;48.882;12.598;2023-05-01T04:13:09;9.80;;;8.35;;
64903;SDS011;51401;48.882;12.598;2023-05-01T04:15:34;13.18;;;8.15;;
64903;SDS011;51401;48.882;12.598;2023-05-01T04:18:00;10.15;;;7.63;;
64903;SDS011;51401;48.882;12.598;2023-05-01T04:20:25;10.00;;;7.63;;
64903;SDS011;51401;48.882;12.598;2023-05-01T04:22:50;9.50;;;6.97;;
64903;SDS011;51401;48.882;12.598;2023-05-01T04:25:16;9.80;;;7.30;;
64903;SDS011;51401;48.882;12.598;2023-05-01T04:27:41;8.98;;;7.70;;
64903;SDS011;51401;48.882;12.598;2023-05-01T04:30:07;8.23;;;7.07;;
64903;SDS011;51401;48.882;12.598;2023-05-01T04:32:33;10.90;;;8.10;;
64903;SDS011;51401;48.882;12.598;2023-05-01T04:34:59;9.57;;;7.60;;
64903;SDS011;51401;48.882;12.598;2023-05-01T04:37:24;9.30;;;7.35;;
64903;SDS011;51401;48.882;12.598;2023-05-01T04:39:50;9.32;;;7.35;;
64903;SDS011;51401;48.882;12.598;2023-05-01T04:42:15;10.60;;;7.82;;
64903;SDS011;51401;48.882;12.598;2023-05-01T04:44:41;7.32;;;5.97;;
64903;SDS011;51401;48.882;12.598;2023-05-01T04:47:06;10.45;;;7.07;;
64903;SDS011;51401;48.882;12.598;2023-05-01T04:49:32;10.15;;;6.97;;
64903;SDS011;51401;48.882;12.598;2023-05-01T04:51:58;10.35;;;7.22;;
64903;SDS011;51401;48.882;12.598;2023-05-01T04:54:23;9.32;;;7.25;;
64903;SDS011;51401;48.882;12.598;2023-05-01T04:56:49;8.85;;;7.18;;
64903;SDS011;51401;48.882;12.598;2023-05-01T04:59:15;9.02;;;7.13;;
64903;SDS011;51401;48.882;12.598;2023-05-01T05:01:40;7.55;;;6.63;;
64903;SDS011;51401;48.882;12.598;2023-05-01T05:04:06;8.07;;;6.88;;
64903;SDS011;51401;48.882;12.598;2023-05-01T05:06:31;8.13;;;7.18;;
64903;SDS011;51401;48.882;12.598;2023-05-01T05:08:57;8.60;;;7.43;;
64903;SDS011;51401;48.882;12.598;2023-05-01T05:11:22;7.95;;;7.10;;
64903;SDS011;51401;48.882;12.598;2023-05-01T05:13:47;10.18;;;7.15;;
64903;SDS011;51401;48.882;12.598;2023-05-01T05:16:13;9.40;;;7.20;;
64903;SDS011;51401;48.882;12.598;2023-05-01T05:18:39;9.45;;;6.70;;
64903;SDS011;51401;48.882;12.598;2023-05-01T05:21:04;8.75;;;7.40;;
64903;SDS011;51401;48.882;12.598;2023-05-01T05:23:30;9.13;;;7.80;;
64903;SDS011;51401;48.882;12.598;2023-05-01T05:25:55;8.73;;;6.90;;
64903;SDS011;51401;48.882;12.598;2023-05-01T05:28:25;8.38;;;7.38;;
64903;SDS011;51401;48.882;12.598;2023-05-01T05:30:51;8.68;;;7.55;;
64903;SDS011;51401;48.882;12.598;2023-05-01T05:33:16;7.82;;;6.72;;
64903;SDS011;51401;48.882;12.598;2023-05-01T05:35:41;8.65;;;7.15;;
64903;SDS011;51401;48.882;12.598;2023-05-01T05:38:07;10.05;;;7.30;;
64903;SDS011;51401;48.882;12.598;2023-05-01T05:40:32;9.02;;;7.20;;
64903;SDS011;51401;48.882;12.598;2023-05-01T05:42:58;8.27;;;6.80;;
64903;SDS011;51401;48.882;12.598;2023-05-01T05:45:23;8.93;;;6.80;;
64903;SDS011;51401;48.882;12.598;2023-05-01T05:47:49;9.57;;;7.90;;
64903;SDS011;51401;48.882;12.598;2023-05-01T05:50:14;7.53;;;6.72;;
64903;SDS011;51401;48.882;12.598;2023-05-01T05:52:40;8.68;;;7.78;;
64903;SDS011;51401;48.882;12.598;2023-05-01T05:55:05;10.02;;;7.45;;
64903;SDS011;51401;48.882;12.598;2023-05-01T05:57:31;8.27;;;7.30;;
64903;SDS011;51401;48.882;12.598;2023-05-01T05:59:58;10.00;;;7.95;;
64903;SDS011;51401;48.882;12.598;2023-05-01T06:02:23;9.38;;;7.50;;
64903;SDS011;51401;48.882;12.598;2023-05-01T06:04:49;7.75;;;6.97;;
64903;SDS011;51401;48.882;12.598;2023-05-01T06:07:14;8.68;;;7.40;;
64903;SDS011;51401;48.882;12.598;2023-05-01T06:09:40;8.68;;;7.03;;
64903;SDS011;51401;48.882;12.598;2023-05-01T06:12:05;9.52;;;6.35;;
64903;SDS011;51401;48.882;12.598;2023-05-01T06:14:31;9.25;;;6.50;;
64903;SDS011;51401;48.882;12.598;2023-05-01T06:16:56;7.80;;;5.90;;
64903;SDS011;51401;48.882;12.598;2023-05-01T06:19:22;7.57;;;6.13;;
64903;SDS011;51401;48.882;12.598;2023-05-01T06:21:47;7.80;;;5.70;;
64903;SDS011;51401;48.882;12.598;2023-05-01T06:24:12;7.90;;;6.05;;
64903;SDS011;51401;48.882;12.598;2023-05-01T06:26:38;8.18;;;5.60;;
64903;SDS011;51401;48.882;12.598;2023-05-01T06:29:03;6.45;;;5.07;;
64903;SDS011;51401;48.882;12.598;2023-05-01T06:31:28;5.95;;;5.25;;
64903;SDS011;51401;48.882;12.598;2023-05-01T06:33:53;6.60;;;5.90;;
64903;SDS011;51401;48.882;12.598;2023-05-01T06:36:19;7.07;;;6.22;;
64903;SDS011;51401;48.882;12.598;2023-05-01T06:38:45;6.30;;;5.40;;
64903;SDS011;51401;48.882;12.598;2023-05-01T06:41:13;5.88;;;5.28;;
64903;SDS011;51401;48.882;12.598;2023-05-01T06:43:39;6.85;;;5.25;;
64903;SDS011;51401;48.882;12.598;2023-05-01T06:46:04;5.30;;;4.80;;
64903;SDS011;51401;48.882;12.598;2023-05-01T06:48:30;5.50;;;4.90;;
64903;SDS011;51401;48.882;12.598;2023-05-01T06:50:55;7.63;;;5.72;;
64903;SDS011;51401;48.882;12.598;2023-05-01T06:53:20;8.02;;;5.22;;
64903;SDS011;51401;48.882;12.598;2023-05-01T06:55:46;7.80;;;5.60;;
64903;SDS011;51401;48.882;12.598;2023-05-01T06:58:11;5.72;;;5.03;;
64903;SDS011;51401;48.882;12.598;2023-05-01T07:00:36;5.27;;;4.70;;
64903;SDS011;51401;48.882;12.598;2023-05-01T07:03:02;5.43;;;4.70;;
64903;SDS011;51401;48.882;12.598;2023-05-01T07:05:28;5.28;;;4.00;;
64903;SDS011;51401;48.882;12.598;2023-05-01T07:07:53;6.47;;;3.97;;
64903;SDS011;51401;48.882;12.598;2023-05-01T07:10:19;4.93;;;4.30;;
64903;SDS011;51401;48.882;12.598;2023-05-01T07:12:44;5.03;;;4.22;;
64903;SDS011;51401;48.882;12.598;2023-05-01T07:15:10;4.90;;;4.40;;
64903;SDS011;51401;48.882;12.598;2023-05-01T07:17:35;5.28;;;3.95;;
64903;SDS011;51401;48.882;12.598;2023-05-01T07:20:01;4.43;;;3.97;;
64903;SDS011;51401;48.882;12.598;2023-05-01T07:22:26;4.65;;;3.83;;
64903;SDS011;51401;48.882;12.598;2023-05-01T07:24:53;4.00;;;3.60;;
64903;SDS011;51401;48.882;12.598;2023-05-01T07:27:18;5.38;;;3.70;;
64903;SDS011;51401;48.882;12.598;2023-05-01T07:29:44;3.83;;;3.35;;
64903;SDS011;51401;48.882;12.598;2023-05-01T07:32:09;5.18;;;3.67;;
64903;SDS011;51401;48.882;12.598;2023-05-01T07:34:34;5.05;;;4.32;;
64903;SDS011;51401;48.882;12.598;2023-05-01T07:37:00;7.80;;;4.18;;
64903;SDS011;51401;48.882;12.598;2023-05-01T07:39:25;5.03;;;3.92;;
64903;SDS011;51401;48.882;12.598;2023-05-01T07:41:51;4.78;;;3.65;;
64903;SDS011;51401;48.882;12.598;2023-05-01T07:44:16;5.38;;;3.83;;
64903;SDS011;51401;48.882;12.598;2023-05-01T07:46:41;4.72;;;3.83;;
64903;SDS011;51401;48.882;12.598;2023-05-01T07:49:07;4.10;;;3.70;;
64903;SDS011;51401;48.882;12.598;2023-05-01T07:51:32;4.22;;;3.80;;
64903;SDS011;51401;48.882;12.598;2023-05-01T07:53:58;4.40;;;3.90;;
64903;SDS011;51401;48.882;12.598;2023-05-01T07:56:28;4.57;;;3.33;;
64903;SDS011;51401;48.882;12.598;2023-05-01T07:58:56;4.00;;;3.40;;
64903;SDS011;51401;48.882;12.598;2023-05-01T08:01:22;4.85;;;3.47;;
64903;SDS011;51401;48.882;12.598;2023-05-01T08:03:47;5.68;;;3.28;;
64903;SDS011;51401;48.882;12.598;2023-05-01T08:06:12;5.03;;;3.55;;
64903;SDS011;51401;48.882;12.598;2023-05-01T08:08:38;4.90;;;3.22;;
64903;SDS011;51401;48.882;12.598;2023-05-01T08:11:04;3.47;;;3.03;;
64903;SDS011;51401;48.882;12.598;2023-05-01T08:13:29;3.13;;;2.80;;
64903;SDS011;51401;48.882;12.598;2023-05-01T08:15:54;3.85;;;3.45;;
64903;SDS011;51401;48.882;12.598;2023-05-01T08:18:23;3.40;;;3.08;;
64903;SDS011;51401;48.882;12.598;2023-05-01T08:20:48;4.30;;;3.30;;
64903;SDS011;51401;48.882;12.598;2023-05-01T08:23:14;3.92;;;3.33;;
64903;SDS011;51401;48.882;12.598;2023-05-01T08:25:40;3.13;;;2.85;;
64903;SDS011;51401;48.882;12.598;2023-05-01T08:28:06;4.32;;;3.40;;
64903;SDS011;51401;48.882;12.598;2023-05-01T08:30:31;3.55;;;3.25;;
64903;SDS011;51401;48.882;12.598;2023-05-01T08:32:56;3.45;;;3.15;;
64903;SDS011;51401;48.882;12.598;2023-05-01T08:35:22;3.22;;;2.78;;
64903;SDS011;51401;48.882;12.598;2023-05-01T08:37:47;4.00;;;2.72;;
64903;SDS011;51401;48.882;12.598;2023-05-01T08:40:13;5.32;;;3.17;;
64903;SDS011;51401;48.882;12.598;2023-05-01T08:42:39;3.33;;;2.90;;
64903;SDS011;51401;48.882;12.598;2023-05-01T08:45:07;3.17;;;2.70;;
64903;SDS011;51401;48.882;12.598;2023-05-01T08:47:37;3.58;;;2.80;;
64903;SDS011;51401;48.882;12.598;2023-05-01T08:50:03;3.10;;;2.78;;
64903;SDS011;51401;48.882;12.598;2023-05-01T08:52:33;3.25;;;2.63;;
64903;SDS011;51401;48.882;12.598;2023-05-01T08:55:00;2.70;;;2.50;;
64903;SDS011;51401;48.882;12.598;2023-05-01T08:57:27;3.60;;;2.55;;
64903;SDS011;51401;48.882;12.598;2023-05-01T08:59:54;3.17;;;2.72;;
64903;SDS011;51401;48.882;12.598;2023-05-01T09:02:22;3.53;;;2.90;;
64903;SDS011;51401;48.882;12.598;2023-05-01T09:04:48;2.88;;;2.58;;
64903;SDS011;51401;48.882;12.598;2023-05-01T09:07:15;3.20;;;2.90;;
64903;SDS011;51401;48.882;12.598;2023-05-01T09:09:40;2.80;;;2.35;;
64903;SDS011;51401;48.882;12.598;2023-05-01T09:12:10;3.35;;;2.75;;
64903;SDS011;51401;48.882;12.598;2023-05-01T09:14:42;3.72;;;3.08;;
64903;SDS011;51401;48.882;12.598;2023-05-01T09:17:09;3.42;;;2.90;;
64903;SDS011;51401;48.882;12.598;2023-05-01T09:19:35;4.28;;;2.85;;
64903;SDS011;51401;48.882;12.598;2023-05-01T09:22:00;3.25;;;2.95;;
64903;SDS011;51401;48.882;12.598;2023-05-01T09:24:26;3.70;;;2.80;;
64903;SDS011;51401;48.882;12.598;2023-05-01T09:26:51;4.35;;;3.22;;
64903;SDS011;51401;48.882;12.598;2023-05-01T09:29:36;3.05;;;2.75;;
64903;SDS011;51401;48.882;12.598;2023-05-01T09:32:12;4.18;;;2.92;;
64903;SDS011;51401;48.882;12.598;2023-05-01T09:34:39;3.45;;;2.70;;
64903;SDS011;51401;48.882;12.598;2023-05-01T09:37:04;3.42;;;3.00;;
64903;SDS011;51401;48.882;12.598;2023-05-01T09:39:30;3.42;;;2.90;;
64903;SDS011;51401;48.882;12.598;2023-05-01T09:41:55;3.67;;;2.90;;
64903;SDS011;51401;48.882;12.598;2023-05-01T09:44:21;3.50;;;3.20;;
64903;SDS011;51401;48.882;12.598;2023-05-01T09:46:46;3.20;;;2.90;;
64903;SDS011;51401;48.882;12.598;2023-05-01T09:49:13;3.60;;;3.28;;
64903;SDS011;51401;48.882;12.598;2023-05-01T09:51:39;3.47;;;3.00;;
64903;SDS011;51401;48.882;12.598;2023-05-01T09:54:05;3.50;;;2.60;;
64903;SDS011;51401;48.882;12.598;2023-05-01T09:56:45;3.15;;;2.85;;
64903;SDS011;51401;48.882;12.598;2023-05-01T10:01:42;3.22;;;2.88;;
64903;SDS011;51401;48.882;12.598;2023-05-01T10:04:09;3.72;;;2.97;;
64903;SDS011;51401;48.882;12.598;2023-05-01T10:06:35;3.45;;;3.15;;
64903;SDS011;51401;48.882;12.598;2023-05-01T10:09:01;3.10;;;2.80;;
64903;SDS011;51401;48.882;12.598;2023-05-01T10:11:27;3.47;;;3.17;;
64903;SDS011;51401;48.882;12.598;2023-05-01T10:14:08;3.95;;;3.28;;
64903;SDS011;51401;48.882;12.598;2023-05-01T10:16:35;3.10;;;2.63;;
64903;SDS011;51401;48.882;12.598;2023-05-01T10:19:02;3.15;;;2.85;;
64903;SDS011;51401;48.882;12.598;2023-05-01T10:21:28;3.65;;;2.88;;
64903;SDS011;51401;48.882;12.598;2023-05-01T10:23:55;3.58;;;2.80;;
64903;SDS011;51401;48.882;12.598;2023-05-01T10:26:21;4.82;;;2.70;;
64903;SDS011;51401;48.882;12.598;2023-05-01T10:28:48;3.08;;;2.78;;
64903;SDS011;51401;48.882;12.598;2023-05-01T10:31:14;3.05;;;2.67;;
64903;SDS011;51401;48.882;12.598;2023-05-01T10:33:41;3.45;;;2.72;;
64903;SDS011;51401;48.882;12.598;2023-05-01T10:36:13;3.25;;;2.92;;
64903;SDS011;51401;48.882;12.598;2023-05-01T10:38:42;3.00;;;2.70;;
64903;SDS011;51401;48.882;12.598;2023-05-01T10:41:12;3.08;;;2.53;;
64903;SDS011;51401;48.882;12.598;2023-05-01T10:43:37;4.30;;;2.80;;
64903;SDS011;51401;48.882;12.598;2023-05-01T10:53:37;3.95;;;2.83;;
64903;SDS011;51401;48.882;12.598;2023-05-01T10:56:05;3.15;;;2.67;;
64903;SDS011;51401;48.882;12.598;2023-05-01T10:58:57;3.08;;;2.70;;
64903;SDS011;51401;48.882;12.598;2023-05-01T11:03:56;3.83;;;2.97;;
64903;SDS011;51401;48.882;12.598;2023-05-01T11:06:22;3.78;;;2.55;;
64903;SDS011;51401;48.882;12.598;2023-05-01T11:08:48;3.78;;;2.97;;
64903;SDS011;51401;48.882;12.598;2023-05-01T11:13:55;3.22;;;2.90;;
64903;SDS011;51401;48.882;12.598;2023-05-01T11:19:06;3.20;;;2.80;;
64903;SDS011;51401;48.882;12.598;2023-05-01T11:21:32;4.00;;;3.10;;
64903;SDS011;51401;48.882;12.598;2023-05-01T11:23:59;4.75;;;3.40;;
64903;SDS011;51401;48.882;12.598;2023-05-01T11:26:25;3.95;;;3.20;;
64903;SDS011;51401;48.882;12.598;2023-05-01T11:28:53;5.82;;;3.25;;
64903;SDS011;51401;48.882;12.598;2023-05-01T11:31:19;4.53;;;3.30;;
64903;SDS011;51401;48.882;12.598;2023-05-01T11:33:45;3.95;;;3.20;;
64903;SDS011;51401;48.882;12.598;2023-05-01T11:36:11;3.08;;;2.50;;
64903;SDS011;51401;48.882;12.598;2023-05-01T11:38:36;4.32;;;3.50;;
64903;SDS011;51401;48.882;12.598;2023-05-01T11:41:02;5.30;;;4.00;;
64903;SDS011;51401;48.882;12.598;2023-05-01T11:43:30;4.07;;;2.90;;
64903;SDS011;51401;48.882;12.598;2023-05-01T11:45:56;4.32;;;3.35;;
64903;SDS011;51401;48.882;12.598;2023-05-01T11:50:52;3.88;;;3.20;;
64903;SDS011;51401;48.882;12.598;2023-05-01T11:53:17;4.93;;;3.45;;
64903;SDS011;51401;48.882;12.598;2023-05-01T11:55:43;3.53;;;3.23;;
64903;SDS011;51401;48.882;12.598;2023-05-01T11:58:09;5.63;;;3.33;;
64903;SDS011;51401;48.882;12.598;2023-05-01T12:00:39;4.00;;;3.60;;
64903;SDS011;51401;48.882;12.598;2023-05-01T12:03:06;4.63;;;3.65;;
64903;SDS011;51401;48.882;12.598;2023-05-01T12:05:34;3.88;;;3.25;;
64903;SDS011;51401;48.882;12.598;2023-05-01T12:08:17;5.97;;;3.53;;
64903;SDS011;51401;48.882;12.598;2023-05-01T12:10:45;6.20;;;3.50;;
64903;SDS011;51401;48.882;12.598;2023-05-01T12:13:13;5.13;;;3.17;;
64903;SDS011;51401;48.882;12.598;2023-05-01T12:15:41;4.43;;;3.63;;
64903;SDS011;51401;48.882;12.598;2023-05-01T12:18:09;4.28;;;3.75;;
64903;SDS011;51401;48.882;12.598;2023-05-01T12:20:36;3.53;;;3.20;;
64903;SDS011;51401;48.882;12.598;2023-05-01T12:23:04;4.30;;;3.88;;
64903;SDS011;51401;48.882;12.598;2023-05-01T12:25:31;4.13;;;3.72;;
64903;SDS011;51401;48.882;12.598;2023-05-01T12:28:02;3.75;;;3.33;;
64903;SDS011;51401;48.882;12.598;2023-05-01T12:30:31;4.03;;;3.33;;
64903;SDS011;51401;48.882;12.598;2023-05-01T12:32:57;5.15;;;3.35;;
64903;SDS011;51401;48.882;12.598;2023-05-01T12:35:27;4.38;;;3.95;;
64903;SDS011;51401;48.882;12.598;2023-05-01T12:37:53;6.82;;;3.55;;
64903;SDS011;51401;48.882;12.598;2023-05-01T12:40:20;5.47;;;3.45;;
64903;SDS011;51401;48.882;12.598;2023-05-01T12:42:55;5.43;;;3.40;;
64903;SDS011;51401;48.882;12.598;2023-05-01T12:45:22;4.97;;;3.33;;
64903;SDS011;51401;48.882;12.598;2023-05-01T12:47:48;4.35;;;3.58;;
64903;SDS011;51401;48.882;12.598;2023-05-01T12:50:13;5.63;;;3.55;;
64903;SDS011;51401;48.882;12.598;2023-05-01T12:52:39;4.47;;;3.60;;
64903;SDS011;51401;48.882;12.598;2023-05-01T12:55:04;5.68;;;4.05;;
64903;SDS011;51401;48.882;12.598;2023-05-01T12:57:31;4.35;;;3.47;;
64903;SDS011;51401;48.882;12.598;2023-05-01T13:00:00;4.72;;;3.80;;
64903;SDS011;51401;48.882;12.598;2023-05-01T13:02:29;4.32;;;3.65;;
64903;SDS011;51401;48.882;12.598;2023-05-01T13:05:08;5.32;;;3.42;;
64903;SDS011;51401;48.882;12.598;2023-05-01T13:07:35;4.43;;;3.42;;
64903;SDS011;51401;48.882;12.598;2023-05-01T13:10:01;4.05;;;3.63;;
64903;SDS011;51401;48.882;12.598;2023-05-01T13:12:28;3.70;;;3.40;;
64903;SDS011;51401;48.882;12.598;2023-05-01T13:14:53;4.38;;;3.50;;
64903;SDS011;51401;48.882;12.598;2023-05-01T13:17:23;4.60;;;3.78;;
64903;SDS011;51401;48.882;12.598;2023-05-01T13:19:54;3.60;;;3.17;;
64903;SDS011;51401;48.882;12.598;2023-05-01T13:24:56;4.35;;;3.42;;
64903;SDS011;51401;48.882;12.598;2023-05-01T13:27:21;4.20;;;3.40;;
64903;SDS011;51401;48.882;12.598;2023-05-01T13:29:54;4.50;;;3.42;;
64903;SDS011;51401;48.882;12.598;2023-05-01T13:32:21;5.00;;;3.55;;
64903;SDS011;51401;48.882;12.598;2023-05-01T13:34:47;3.70;;;3.40;;
64903;SDS011;51401;48.882;12.598;2023-05-01T13:37:13;4.32;;;3.35;;
64903;SDS011;51401;48.882;12.598;2023-05-01T13:39:41;3.50;;;3.20;;
64903;SDS011;51401;48.882;12.598;2023-05-01T13:42:07;3.58;;;3.28;;
64903;SDS011;51401;48.882;12.598;2023-05-01T13:44:34;4.85;;;3.35;;
64903;SDS011;51401;48.882;12.598;2023-05-01T13:47:07;3.55;;;3.25;;
64903;SDS011;51401;48.882;12.598;2023-05-01T13:49:33;4.28;;;3.47;;
64903;SDS011;51401;48.882;12.598;2023-05-01T13:51:59;3.45;;;3.15;;
64903;SDS011;51401;48.882;12.598;2023-05-01T13:54:24;3.70;;;3.13;;
64903;SDS011;51401;48.882;12.598;2023-05-01T13:56:49;4.90;;;3.70;;
64903;SDS011;51401;48.882;12.598;2023-05-01T13:59:16;3.17;;;2.85;;
64903;SDS011;51401;48.882;12.598;2023-05-01T14:01:41;5.18;;;3.72;;
64903;SDS011;51401;48.882;12.598;2023-05-01T14:04:15;3.88;;;3.33;;
64903;SDS011;51401;48.882;12.598;2023-05-01T14:06:41;4.63;;;3.67;;
64903;SDS011;51401;48.882;12.598;2023-05-01T14:09:08;4.70;;;3.38;;
64903;SDS011;51401;48.882;12.598;2023-05-01T14:11:33;3.45;;;3.13;;
64903;SDS011;51401;48.882;12.598;2023-05-01T14:13:58;4.13;;;3.30;;
64903;SDS011;51401;48.882;12.598;2023-05-01T14:16:27;3.88;;;3.47;;
64903;SDS011;51401;48.882;12.598;2023-05-01T14:18:55;4.28;;;3.03;;
64903;SDS011;51401;48.882;12.598;2023-05-01T14:21:24;3.95;;;3.30;;
64903;SDS011;51401;48.882;12.598;2023-05-01T14:23:54;4.45;;;3.40;;
64903;SDS011;51401;48.882;12.598;2023-05-01T14:26:20;5.05;;;3.70;;
64903;SDS011;51401;48.882;12.598;2023-05-01T14:28:47;4.68;;;3.20;;
64903;SDS011;51401;48.882;12.598;2023-05-01T14:31:23;4.10;;;3.15;;
64903;SDS011;51401;48.882;12.598;2023-05-01T14:33:58;5.10;;;3.38;;
64903;SDS011;51401;48.882;12.598;2023-05-01T14:36:25;4.93;;;3.40;;
64903;SDS011;51401;48.882;12.598;2023-05-01T14:38:54;5.00;;;3.75;;
64903;SDS011;51401;48.882;12.598;2023-05-01T14:41:20;4.03;;;3.50;;
64903;SDS011;51401;48.882;12.598;2023-05-01T14:43:45;3.67;;;3.22;;
64903;SDS011;51401;48.882;12.598;2023-05-01T14:46:12;4.88;;;3.50;;
64903;SDS011;51401;48.882;12.598;2023-05-01T14:48:40;3.72;;;3.40;;
64903;SDS011;51401;48.882;12.598;2023-05-01T14:51:10;5.18;;;3.50;;
64903;SDS011;51401;48.882;12.598;2023-05-01T14:53:39;4.60;;;3.38;;
64903;SDS011;51401;48.882;12.598;2023-05-01T14:56:08;4.32;;;3.92;;
64903;SDS011;51401;48.882;12.598;2023-05-01T14:58:34;6.97;;;4.05;;
64903;SDS011;51401;48.882;12.598;2023-05-01T15:00:59;7.55;;;4.00;;
64903;SDS011;51401;48.882;12.598;2023-05-01T15:03:26;4.40;;;3.80;;
64903;SDS011;51401;48.882;12.598;2023-05-01T15:05:51;4.20;;;3.80;;
64903;SDS011;51401;48.882;12.598;2023-05-01T15:08:17;6.18;;;4.47;;
64903;SDS011;51401;48.882;12.598;2023-05-01T15:10:42;8.10;;;6.20;;